Time;durP1;ratioP1;P1;durP2;ratioP2;P2;SDS_P1;SDS_P2;PMS_P1;PMS_P2;Temp;Humidity;BMP_temperature;BMP_pressure;BME280_temperature;BME280_humidity;BME280_pressure;Samples;Min_cycle;Max_cycle;Signal;HPM_P1;HPM_P2
2022/06/20 17:25:04;;;;;;;13.13;6.88;;;23.20;57.00;;;;;;4957625;28;116911;-67
2022/06/20 17:27:37;;;;;;;10.45;6.88;;;25.20;55.30;;;;;;4898297;28;114563;-67
2022/06/20 17:30:07;;;;;;;15.10;7.70;;;25.20;55.40;;;;;;4925006;28;115561;-63
2022/06/20 17:32:43;;;;;;;12.93;8.67;;;25.10;55.50;;;;;;4923916;28;114749;-63
2022/06/20 17:35:36;;;;;;;13.75;7.93;;;25.10;55.70;;;;;;4923399;28;114676;-63
2022/06/20 17:38:09;;;;;;;13.88;8.40;;;25.20;55.70;;;;;;4924910;28;117831;-63
2022/06/20 17:40:47;;;;;;;11.47;7.30;;;25.20;55.90;;;;;;4925510;28;116847;-62
2022/06/20 17:43:40;;;;;;;13.27;8.10;;;25.20;56.20;;;;;;4922788;28;115072;-66
2022/06/20 17:46:25;;;;;;;11.38;7.28;;;25.20;56.30;;;;;;4923098;28;114424;-67
2022/06/20 17:49:34;;;;;;;12.85;7.18;;;25.20;56.40;;;;;;4922951;28;114562;-66
2022/06/20 17:52:29;;;;;;;10.45;6.68;;;25.20;56.50;;;;;;4919004;28;118688;-67
2022/06/20 17:55:03;;;;;;;10.60;6.63;;;25.20;56.80;;;;;;4923062;28;114888;-63
2022/06/20 17:57:59;;;;;;;11.00;6.63;;;25.20;57.30;;;;;;4923068;28;114621;-63
2022/06/20 18:00:50;;;;;;;11.65;6.22;;;25.20;57.30;;;;;;4921917;28;114379;-62
2022/06/20 18:03:26;;;;;;;11.13;6.10;;;25.20;57.40;;;;;;4921324;28;116402;-64
2022/06/20 18:06:00;;;;;;;10.05;5.93;;;25.20;57.60;;;;;;4784138;28;115865;-65
2022/06/20 18:08:51;;;;;;;11.18;5.72;;;25.20;57.40;;;;;;4925026;28;114543;-65
2022/06/20 18:11:29;;;;;;;12.93;6.70;;;25.30;57.20;;;;;;4922718;28;114645;-64
2022/06/20 18:14:28;;;;;;;15.65;6.18;;;25.30;57.60;;;;;;4921549;28;117486;-66
2022/06/20 18:17:00;;;;;;;10.23;6.68;;;25.30;57.30;;;;;;4922391;28;114696;-63
2022/06/20 18:19:36;;;;;;;10.15;6.70;;;25.20;57.70;;;;;;4922458;28;114328;-67
2022/06/20 18:22:11;;;;;;;13.45;6.18;;;25.20;57.80;;;;;;4923942;28;114568;-64
2022/06/20 18:24:48;;;;;;;16.42;6.50;;;25.20;58.00;;;;;;4922238;28;116410;-65
2022/06/20 18:27:34;;;;;;;14.60;8.00;;;25.20;57.90;;;;;;4906557;28;116449;-65
2022/06/20 18:30:17;;;;;;;14.80;7.65;;;25.20;58.00;;;;;;4892788;28;114598;-69
2022/06/20 18:33:53;;;;;;;18.02;7.82;;;25.20;58.00;;;;;;4926125;28;117264;-70
2022/06/20 18:36:43;;;;;;;15.05;7.88;;;25.10;58.00;;;;;;4929845;28;117092;-65
2022/06/20 18:40:00;;;;;;;17.27;9.18;;;25.10;58.20;;;;;;4935063;28;115221;-66
2022/06/20 18:47:26;;;;;;;14.23;10.43;;;25.00;57.80;;;;;;4921241;28;114621;-66
2022/06/20 18:50:07;;;;;;;17.52;10.80;;;25.00;57.60;;;;;;4945798;28;114615;-63
2022/06/20 18:53:03;;;;;;;15.68;11.25;;;25.00;57.20;;;;;;4945506;28;114870;-72
2022/06/20 18:55:57;;;;;;;13.07;10.52;;;25.00;57.10;;;;;;4930762;28;114559;-68
2022/06/20 18:58:47;;;;;;;17.15;10.38;;;25.00;56.90;;;;;;4927830;28;114818;-69
2022/06/20 19:01:42;;;;;;;14.55;9.38;;;24.90;56.60;;;;;;4945386;28;115182;-67
2022/06/20 19:04:31;;;;;;;10.30;9.02;;;24.80;56.30;;;;;;4926607;28;115356;-68
2022/06/20 19:07:37;;;;;;;11.40;8.25;;;24.80;56.20;;;;;;4923544;28;114399;-69
2022/06/20 19:10:30;;;;;;;10.13;7.50;;;24.80;55.60;;;;;;4925665;28;114755;-67
2022/06/20 19:13:18;;;;;;;10.75;7.30;;;24.60;55.70;;;;;;4908501;28;115683;-68
2022/06/20 19:16:04;;;;;;;12.93;7.40;;;24.60;55.50;;;;;;4908464;28;116450;-68
2022/06/20 19:18:45;;;;;;;9.25;6.88;;;24.50;55.30;;;;;;4912293;28;116348;-68
2022/06/20 19:21:40;;;;;;;8.90;6.60;;;24.40;55.30;;;;;;4907252;28;114239;-68
2022/06/20 19:24:30;;;;;;;10.38;6.47;;;24.50;55.10;;;;;;4907434;28;115341;-68
2022/06/20 19:27:10;;;;;;;8.60;5.93;;;24.50;54.90;;;;;;4890506;28;114848;-68
2022/06/20 19:29:38;;;;;;;8.57;5.90;;;24.40;54.90;;;;;;4897195;28;114623;-68
2022/06/20 19:32:11;;;;;;;7.70;5.68;;;24.40;55.00;;;;;;4908705;28;114485;-65
2022/06/20 19:34:47;;;;;;;6.88;5.07;;;24.40;54.90;;;;;;4907775;28;115312;-66
2022/06/20 19:37:19;;;;;;;9.13;5.63;;;24.30;54.80;;;;;;4906518;28;114863;-67
